This is the latest recevied weather packets stored in our database for station/object KN6ETB-1. If no packets are shown the sender has not sent any weather packets the latest 10 day(s).
| Time | Temp. | Humidity | Pressure | Rain* | Wind** | Luminosity | Snow |
|---|---|---|---|---|---|---|---|
| 1777841321 | 20.56° C | 56% | 1009.5 hPa | 0 mm | - | 637 W/m² | - |
| 1777841018 | 19.44° C | 58% | 1009.3 hPa | 0 mm | - | 491 W/m² | - |
| 1777840715 | 20° C | 57% | 1009.6 hPa | 0 mm | - | 639 W/m² | - |
| 1777840413 | 18.89° C | 57% | 1009.3 hPa | 0 mm | - | 693 W/m² | - |
| 1777840110 | 18.89° C | 59% | 1009.5 hPa | 0 mm | - | 558 W/m² | - |
| 1777839808 | 18.89° C | 59% | 1009.5 hPa | 0 mm | - | 573 W/m² | - |
| 1777839506 | 18.33° C | 60% | 1009.3 hPa | 0 mm | - | 567 W/m² | - |
| 1777839202 | 18.89° C | 59% | 1009.7 hPa | 0 mm | - | 475 W/m² | - |
| 1777838900 | 18.33° C | 59% | 1009.4 hPa | 0 mm | - | 539 W/m² | - |
| 1777838595 | 17.78° C | 60% | 1009.4 hPa | 0 mm | - | 457 W/m² | - |
| 1777838293 | 18.33° C | 59% | 1009.7 hPa | 0 mm | - | 466 W/m² | - |
| 1777837990 | 17.78° C | 61% | 1009.5 hPa | 0 mm | - | 512 W/m² | - |
| 1777837687 | 17.78° C | 61% | 1009.7 hPa | 0 mm | - | 514 W/m² | - |
| 1777837383 | 17.78° C | 59% | 1009.6 hPa | 0 mm | - | 485 W/m² | - |
| 1777837079 | 18.33° C | 59% | 1009.8 hPa | 0 mm | - | 672 W/m² | - |
| 1777836775 | 18.33° C | 60% | 1009.5 hPa | 0 mm | - | 867 W/m² | - |
| 1777836471 | 18.33° C | 61% | 1009.7 hPa | 0 mm | - | 872 W/m² | - |
| 1777836167 | 17.78° C | 61% | 1009.7 hPa | 0 mm | - | 831 W/m² | - |
| 1777835863 | 17.22° C | 62% | 1009.9 hPa | 0 mm | - | 495 W/m² | - |
| 1777835560 | 17.22° C | 62% | 1009.8 hPa | 0 mm | - | 341 W/m² | - |
| 1777835257 | 17.22° C | 62% | 1009.8 hPa | 0 mm | - | 354 W/m² | - |
| 1777834954 | 17.22° C | 62% | 1009.9 hPa | 0 mm | - | 307 W/m² | - |
| 1777834651 | 17.22° C | 63% | 1009.8 hPa | 0 mm | - | 406 W/m² | - |
| 1777834347 | 17.22° C | 64% | 1009.8 hPa | 0 mm | - | 350 W/m² | - |
| 1777834041 | 17.78° C | 63% | 1009.8 hPa | 0 mm | - | 505 W/m² | - |
* Rain latest hour (hover to see other rain measurements)
** Current wind speed in m/s (hover to see current wind gust speed)